sensor_id;sensor_type;location;lat;lon;timestamp;pressure;altitude;pressure_sealevel;temperature;humidity
63395;BME280;49531;-34.520;150.798;2022-08-25T08:16:39;101481.25;;;16.28;55.18
63395;BME280;49531;-34.520;150.798;2022-08-25T08:19:06;101486.84;;;16.27;55.22
63395;BME280;49531;-34.520;150.798;2022-08-25T08:21:34;101482.28;;;16.27;55.46
63395;BME280;49531;-34.520;150.798;2022-08-25T08:24:02;101495.97;;;16.26;55.36
63395;BME280;49531;-34.520;150.798;2022-08-25T08:26:30;101495.97;;;16.26;55.50
63395;BME280;49531;-34.520;150.798;2022-08-25T08:28:57;101502.41;;;16.25;55.30
63395;BME280;49531;-34.520;150.798;2022-08-25T08:31:25;101506.97;;;16.24;55.27
63395;BME280;49531;-34.520;150.798;2022-08-25T08:33:56;101514.22;;;16.24;55.51
63395;BME280;49531;-34.520;150.798;2022-08-25T08:36:24;101516.94;;;16.24;55.47
63395;BME280;49531;-34.520;150.798;2022-08-25T08:38:51;101515.28;;;16.23;55.38
63395;BME280;49531;-34.520;150.798;2022-08-25T08:44:13;101523.78;;;16.20;55.66
63395;BME280;49531;-34.520;150.798;2022-08-25T08:50:04;101532.91;;;16.19;55.80
63395;BME280;49531;-34.520;150.798;2022-08-25T08:58:31;101544.94;;;16.16;55.94
63395;BME280;49531;-34.520;150.798;2022-08-25T09:01:01;101558.63;;;16.15;55.92
63395;BME280;49531;-34.520;150.798;2022-08-25T09:03:41;101561.31;;;16.15;55.94
63395;BME280;49531;-34.520;150.798;2022-08-25T09:06:12;101565.03;;;16.14;55.88
63395;BME280;49531;-34.520;150.798;2022-08-25T09:08:42;101566.09;;;16.13;55.96
63395;BME280;49531;-34.520;150.798;2022-08-25T09:22:31;101570.25;;;16.09;56.76
63395;BME280;49531;-34.520;150.798;2022-08-25T09:28:24;101568.16;;;16.04;57.54
63395;BME280;49531;-34.520;150.798;2022-08-25T09:31:16;101575.41;;;16.04;57.64
63395;BME280;49531;-34.520;150.798;2022-08-25T09:33:45;101582.69;;;16.03;57.94
63395;BME280;49531;-34.520;150.798;2022-08-25T09:36:12;101579.34;;;16.01;57.89
63395;BME280;49531;-34.520;150.798;2022-08-25T09:38:39;101580.19;;;16.01;58.10
63395;BME280;49531;-34.520;150.798;2022-08-25T09:41:07;101577.13;;;15.98;57.91
63395;BME280;49531;-34.520;150.798;2022-08-25T09:43:40;101576.91;;;15.86;60.28
63395;BME280;49531;-34.520;150.798;2022-08-25T09:46:14;101577.75;;;15.80;61.08
63395;BME280;49531;-34.520;150.798;2022-08-25T09:48:42;101573.59;;;15.84;60.35
63395;BME280;49531;-34.520;150.798;2022-08-25T09:56:27;101578.16;;;15.90;59.07
63395;BME280;49531;-34.520;150.798;2022-08-25T10:01:55;101578.97;;;15.91;59.03
63395;BME280;49531;-34.520;150.798;2022-08-25T10:04:27;101574.84;;;15.88;58.61
63395;BME280;49531;-34.520;150.798;2022-08-25T10:07:00;101577.53;;;15.88;58.64
63395;BME280;49531;-34.520;150.798;2022-08-25T10:09:32;101580.22;;;15.88;58.58
63395;BME280;49531;-34.520;150.798;2022-08-25T10:12:01;101583.97;;;15.87;58.33
63395;BME280;49531;-34.520;150.798;2022-08-25T10:14:35;101582.31;;;15.86;58.70
63395;BME280;49531;-34.520;150.798;2022-08-25T10:17:31;101577.94;;;15.85;58.44
63395;BME280;49531;-34.520;150.798;2022-08-25T10:20:20;101581.69;;;15.84;58.29
63395;BME280;49531;-34.520;150.798;2022-08-25T10:22:48;101585.41;;;15.83;58.57
63395;BME280;49531;-34.520;150.798;2022-08-25T10:25:26;101588.31;;;15.82;58.12
63395;BME280;49531;-34.520;150.798;2022-08-25T10:28:19;101591.19;;;15.80;58.04
63395;BME280;49531;-34.520;150.798;2022-08-25T10:31:56;101583.34;;;15.79;58.19
63395;BME280;49531;-34.520;150.798;2022-08-25T10:50:16;101593.88;;;15.67;58.34
63395;BME280;49531;-34.520;150.798;2022-08-25T10:52:51;101587.66;;;15.66;58.34
63395;BME280;49531;-34.520;150.798;2022-08-25T10:55:33;101591.19;;;15.67;58.10
63395;BME280;49531;-34.520;150.798;2022-08-25T10:58:24;101592.22;;;15.66;58.25
63395;BME280;49531;-34.520;150.798;2022-08-25T11:01:19;101598.66;;;15.65;58.38
63395;BME280;49531;-34.520;150.798;2022-08-25T11:04:02;101602.38;;;15.64;58.45
63395;BME280;49531;-34.520;150.798;2022-08-25T11:09:45;101607.75;;;15.64;57.53
63395;BME280;49531;-34.520;150.798;2022-08-25T11:12:28;101603.00;;;15.66;57.75
63395;BME280;49531;-34.520;150.798;2022-08-25T11:15:21;101609.00;;;15.68;57.62
63395;BME280;49531;-34.520;150.798;2022-08-25T11:17:55;101606.31;;;15.68;57.75
63395;BME280;49531;-34.520;150.798;2022-08-25T11:20:39;101608.81;;;15.70;57.53
63395;BME280;49531;-34.520;150.798;2022-08-25T11:26:13;101612.94;;;15.72;58.23
63395;BME280;49531;-34.520;150.798;2022-08-25T11:31:25;101615.41;;;15.54;60.05
63395;BME280;49531;-34.520;150.798;2022-08-25T11:33:54;101621.00;;;15.52;60.54
63395;BME280;49531;-34.520;150.798;2022-08-25T11:39:14;101625.69;;;15.30;62.12
63395;BME280;49531;-34.520;150.798;2022-08-25T11:53:13;101624.44;;;15.13;62.65
63395;BME280;49531;-34.520;150.798;2022-08-25T11:58:29;101630.00;;;15.05;62.79
63395;BME280;49531;-34.520;150.798;2022-08-25T12:00:59;101630.78;;;14.99;63.23
63395;BME280;49531;-34.520;150.798;2022-08-25T12:06:29;101628.09;;;14.99;62.88
63395;BME280;49531;-34.520;150.798;2022-08-25T12:30:47;101644.00;;;14.94;62.43
63395;BME280;49531;-34.520;150.798;2022-08-25T12:33:40;101634.88;;;14.88;62.33
63395;BME280;49531;-34.520;150.798;2022-08-25T12:36:28;101643.38;;;14.92;62.23
63395;BME280;49531;-34.520;150.798;2022-08-25T12:39:14;101635.88;;;14.81;62.58
63395;BME280;49531;-34.520;150.798;2022-08-25T12:41:56;101629.91;;;14.85;62.25
63395;BME280;49531;-34.520;150.798;2022-08-25T12:44:38;101637.13;;;14.85;62.31
63395;BME280;49531;-34.520;150.798;2022-08-25T12:47:28;101636.69;;;14.81;62.26
63395;BME280;49531;-34.520;150.798;2022-08-25T12:55:48;101630.28;;;14.76;61.84
63395;BME280;49531;-34.520;150.798;2022-08-25T12:58:17;101635.03;;;14.74;61.88
63395;BME280;49531;-34.520;150.798;2022-08-25T13:01:09;101641.84;;;14.70;61.96
63395;BME280;49531;-34.520;150.798;2022-08-25T13:12:20;101636.38;;;14.56;61.31
63395;BME280;49531;-34.520;150.798;2022-08-25T13:14:54;101634.97;;;14.60;61.13
63395;BME280;49531;-34.520;150.798;2022-08-25T13:17:30;101637.66;;;14.60;61.15
63395;BME280;49531;-34.520;150.798;2022-08-25T13:20:12;101633.28;;;14.59;61.38
63395;BME280;49531;-34.520;150.798;2022-08-25T13:22:40;101640.72;;;14.57;61.04
63395;BME280;49531;-34.520;150.798;2022-08-25T13:25:15;101642.34;;;14.52;61.40
63395;BME280;49531;-34.520;150.798;2022-08-25T13:27:48;101648.56;;;14.52;61.49
63395;BME280;49531;-34.520;150.798;2022-08-25T13:30:34;101654.31;;;14.49;61.56
63395;BME280;49531;-34.520;150.798;2022-08-25T13:33:22;101651.00;;;14.47;61.70
63395;BME280;49531;-34.520;150.798;2022-08-25T13:35:53;101653.06;;;14.45;61.69
63395;BME280;49531;-34.520;150.798;2022-08-25T13:38:42;101653.88;;;14.46;61.71
63395;BME280;49531;-34.520;150.798;2022-08-25T13:41:09;101653.59;;;14.41;61.84
63395;BME280;49531;-34.520;150.798;2022-08-25T13:43:37;101663.53;;;14.40;62.03
63395;BME280;49531;-34.520;150.798;2022-08-25T13:46:05;101658.81;;;14.42;61.77
63395;BME280;49531;-34.520;150.798;2022-08-25T13:48:40;101664.44;;;14.47;61.50
63395;BME280;49531;-34.520;150.798;2022-08-25T13:51:20;101659.22;;;14.39;62.13
63395;BME280;49531;-34.520;150.798;2022-08-25T13:53:56;101663.53;;;14.40;62.04
63395;BME280;49531;-34.520;150.798;2022-08-25T13:56:35;101663.13;;;14.37;61.96
63395;BME280;49531;-34.520;150.798;2022-08-25T13:59:05;101661.50;;;14.42;61.70
63395;BME280;49531;-34.520;150.798;2022-08-25T14:01:45;101661.25;;;14.37;61.94
63395;BME280;49531;-34.520;150.798;2022-08-25T14:04:31;101656.66;;;14.31;61.81
63395;BME280;49531;-34.520;150.798;2022-08-25T14:07:25;101672.75;;;14.24;62.15
63395;BME280;49531;-34.520;150.798;2022-08-25T14:10:28;101659.09;;;14.26;61.95
63395;BME280;49531;-34.520;150.798;2022-08-25T14:13:15;101664.94;;;14.29;61.98
63395;BME280;49531;-34.520;150.798;2022-08-25T14:15:44;101667.22;;;14.32;61.65
63395;BME280;49531;-34.520;150.798;2022-08-25T14:18:20;101669.84;;;14.26;61.91
63395;BME280;49531;-34.520;150.798;2022-08-25T14:20:50;101664.88;;;14.23;61.83
63395;BME280;49531;-34.520;150.798;2022-08-25T14:23:23;101666.53;;;14.24;61.96
63395;BME280;49531;-34.520;150.798;2022-08-25T14:25:52;101667.38;;;14.24;61.81
63395;BME280;49531;-34.520;150.798;2022-08-25T14:28:23;101676.25;;;14.25;61.75
63395;BME280;49531;-34.520;150.798;2022-08-25T14:30:59;101672.09;;;14.22;61.80
63395;BME280;49531;-34.520;150.798;2022-08-25T14:33:30;101676.44;;;14.23;62.04
63395;BME280;49531;-34.520;150.798;2022-08-25T14:35:59;101671.31;;;14.28;61.75
63395;BME280;49531;-34.520;150.798;2022-08-25T14:38:28;101669.41;;;14.22;62.25
63395;BME280;49531;-34.520;150.798;2022-08-25T14:40:55;101677.22;;;14.17;62.19
63395;BME280;49531;-34.520;150.798;2022-08-25T14:43:22;101671.03;;;14.17;62.52
63395;BME280;49531;-34.520;150.798;2022-08-25T14:45:49;101686.25;;;14.10;62.83
63395;BME280;49531;-34.520;150.798;2022-08-25T14:48:28;101677.22;;;14.17;62.23
63395;BME280;49531;-34.520;150.798;2022-08-25T14:50:57;101674.34;;;14.19;62.75
63395;BME280;49531;-34.520;150.798;2022-08-25T14:53:26;101680.88;;;14.10;63.00
63395;BME280;49531;-34.520;150.798;2022-08-25T14:55:53;101675.69;;;14.08;62.97
63395;BME280;49531;-34.520;150.798;2022-08-25T14:58:21;101687.09;;;14.10;62.65
63395;BME280;49531;-34.520;150.798;2022-08-25T15:00:49;101689.56;;;14.12;63.04
63395;BME280;49531;-34.520;150.798;2022-08-25T15:03:52;101682.53;;;14.11;62.94
63395;BME280;49531;-34.520;150.798;2022-08-25T15:06:20;101679.59;;;14.06;63.25
63395;BME280;49531;-34.520;150.798;2022-08-25T15:08:47;101684.97;;;14.06;63.15
63395;BME280;49531;-34.520;150.798;2022-08-25T15:11:33;101677.34;;;14.09;62.83
63395;BME280;49531;-34.520;150.798;2022-08-25T15:14:00;101673.59;;;14.03;62.98
63395;BME280;49531;-34.520;150.798;2022-08-25T15:16:33;101676.88;;;13.99;63.12
63395;BME280;49531;-34.520;150.798;2022-08-25T15:19:05;101683.31;;;14.05;62.67
63395;BME280;49531;-34.520;150.798;2022-08-25T15:21:33;101676.28;;;14.03;62.78
63395;BME280;49531;-34.520;150.798;2022-08-25T15:24:00;101682.28;;;14.06;62.50
63395;BME280;49531;-34.520;150.798;2022-08-25T15:26:27;101674.59;;;13.96;62.91
63395;BME280;49531;-34.520;150.798;2022-08-25T15:28:54;101672.09;;;13.94;63.03
63395;BME280;49531;-34.520;150.798;2022-08-25T15:31:21;101676.81;;;13.92;63.05
63395;BME280;49531;-34.520;150.798;2022-08-25T15:33:49;101669.59;;;13.93;62.83
63395;BME280;49531;-34.520;150.798;2022-08-25T15:36:24;101672.47;;;13.91;63.11
63395;BME280;49531;-34.520;150.798;2022-08-25T15:38:51;101680.34;;;13.93;62.66
63395;BME280;49531;-34.520;150.798;2022-08-25T15:41:19;101674.78;;;13.94;63.29
63395;BME280;49531;-34.520;150.798;2022-08-25T15:43:47;101674.13;;;13.92;62.82
63395;BME280;49531;-34.520;150.798;2022-08-25T15:46:18;101674.53;;;13.89;63.16
63395;BME280;49531;-34.520;150.798;2022-08-25T15:48:46;101680.16;;;13.94;62.74
63395;BME280;49531;-34.520;150.798;2022-08-25T15:51:15;101675.59;;;13.95;62.77
63395;BME280;49531;-34.520;150.798;2022-08-25T15:53:43;101673.13;;;13.93;62.68
63395;BME280;49531;-34.520;150.798;2022-08-25T15:56:11;101674.91;;;13.86;62.92
63395;BME280;49531;-34.520;150.798;2022-08-25T15:58:45;101683.22;;;13.91;62.53
63395;BME280;49531;-34.520;150.798;2022-08-25T16:01:17;101676.75;;;13.86;62.69
63395;BME280;49531;-34.520;150.798;2022-08-25T16:03:45;101676.94;;;13.84;62.72
63395;BME280;49531;-34.520;150.798;2022-08-25T16:06:12;101674.44;;;13.83;62.68
63395;BME280;49531;-34.520;150.798;2022-08-25T16:08:39;101676.69;;;13.79;62.78
63395;BME280;49531;-34.520;150.798;2022-08-25T16:11:22;101679.31;;;13.73;63.09
63395;BME280;49531;-34.520;150.798;2022-08-25T16:13:51;101674.13;;;13.71;62.79
63395;BME280;49531;-34.520;150.798;2022-08-25T16:16:20;101675.97;;;13.71;62.55
63395;BME280;49531;-34.520;150.798;2022-08-25T16:18:48;101671.19;;;13.66;62.86
63395;BME280;49531;-34.520;150.798;2022-08-25T16:21:20;101665.16;;;13.64;62.83
63395;BME280;49531;-34.520;150.798;2022-08-25T16:23:48;101656.09;;;13.65;62.88
63395;BME280;49531;-34.520;150.798;2022-08-25T16:26:15;101653.59;;;13.63;62.65
63395;BME280;49531;-34.520;150.798;2022-08-25T16:28:43;101659.56;;;13.59;62.80
63395;BME280;49531;-34.520;150.798;2022-08-25T16:31:12;101656.66;;;13.60;62.38
63395;BME280;49531;-34.520;150.798;2022-08-25T16:33:40;101644.50;;;13.58;62.82
63395;BME280;49531;-34.520;150.798;2022-08-25T16:36:13;101642.41;;;13.60;62.34
63395;BME280;49531;-34.520;150.798;2022-08-25T16:38:42;101640.72;;;13.52;62.91
63395;BME280;49531;-34.520;150.798;2022-08-25T16:41:13;101639.44;;;13.48;62.93
63395;BME280;49531;-34.520;150.798;2022-08-25T16:43:41;101637.59;;;13.49;62.83
63395;BME280;49531;-34.520;150.798;2022-08-25T16:46:10;101635.28;;;13.46;63.26
63395;BME280;49531;-34.520;150.798;2022-08-25T16:48:39;101632.97;;;13.43;63.06
63395;BME280;49531;-34.520;150.798;2022-08-25T16:51:11;101623.63;;;13.39;63.30
63395;BME280;49531;-34.520;150.798;2022-08-25T16:53:38;101626.78;;;13.42;63.19
63395;BME280;49531;-34.520;150.798;2022-08-25T16:56:23;101626.78;;;13.42;62.85
63395;BME280;49531;-34.520;150.798;2022-08-25T16:58:56;101632.59;;;13.46;62.84
63395;BME280;49531;-34.520;150.798;2022-08-25T17:01:25;101632.78;;;13.44;63.09
63395;BME280;49531;-34.520;150.798;2022-08-25T17:03:55;101633.81;;;13.43;63.02
63395;BME280;49531;-34.520;150.798;2022-08-25T17:06:25;101634.81;;;13.42;63.07
63395;BME280;49531;-34.520;150.798;2022-08-25T17:08:53;101632.53;;;13.39;63.26
63395;BME280;49531;-34.520;150.798;2022-08-25T17:11:24;101630.03;;;13.38;63.40
63395;BME280;49531;-34.520;150.798;2022-08-25T17:13:54;101632.06;;;13.35;63.08
63395;BME280;49531;-34.520;150.798;2022-08-25T17:16:25;101633.72;;;13.37;63.29
63395;BME280;49531;-34.520;150.798;2022-08-25T17:18:56;101625.03;;;13.34;63.17
63395;BME280;49531;-34.520;150.798;2022-08-25T17:21:24;101626.88;;;13.34;63.26
63395;BME280;49531;-34.520;150.798;2022-08-25T17:23:55;101623.19;;;13.35;63.21
63395;BME280;49531;-34.520;150.798;2022-08-25T17:26:27;101626.88;;;13.34;63.21
63395;BME280;49531;-34.520;150.798;2022-08-25T17:28:59;101631.44;;;13.33;63.14
63395;BME280;49531;-34.520;150.798;2022-08-25T17:31:27;101633.91;;;13.35;62.71
63395;BME280;49531;-34.520;150.798;2022-08-25T17:33:54;101631.81;;;13.30;63.13
63395;BME280;49531;-34.520;150.798;2022-08-25T17:36:21;101633.69;;;13.15;63.62
63395;BME280;49531;-34.520;150.798;2022-08-25T17:38:49;101633.69;;;13.15;63.34
63395;BME280;49531;-34.520;150.798;2022-08-25T17:41:16;101638.72;;;13.18;63.33
63395;BME280;49531;-34.520;150.798;2022-08-25T17:43:43;101646.16;;;13.23;63.15
63395;BME280;49531;-34.520;150.798;2022-08-25T17:46:12;101639.59;;;13.25;62.97
63395;BME280;49531;-34.520;150.798;2022-08-25T17:48:40;101645.75;;;13.19;62.98
63395;BME280;49531;-34.520;150.798;2022-08-25T17:51:08;101645.16;;;13.09;63.38
63395;BME280;49531;-34.520;150.798;2022-08-25T17:53:36;101644.34;;;13.09;63.34
63395;BME280;49531;-34.520;150.798;2022-08-25T17:56:06;101645.44;;;13.14;63.00
63395;BME280;49531;-34.520;150.798;2022-08-25T17:58:35;101650.44;;;13.02;63.39
63395;BME280;49531;-34.520;150.798;2022-08-25T18:01:04;101654.22;;;13.08;62.92
63395;BME280;49531;-34.520;150.798;2022-08-25T18:03:31;101651.66;;;13.00;63.42
63395;BME280;49531;-34.520;150.798;2022-08-25T18:05:59;101652.94;;;13.04;63.07
63395;BME280;49531;-34.520;150.798;2022-08-25T18:08:26;101653.97;;;13.03;62.87
63395;BME280;49531;-34.520;150.798;2022-08-25T18:10:53;101650.34;;;12.96;63.29
63395;BME280;49531;-34.520;150.798;2022-08-25T18:13:20;101659.69;;;13.00;63.17
63395;BME280;49531;-34.520;150.798;2022-08-25T18:15:47;101652.03;;;12.97;63.37
63395;BME280;49531;-34.520;150.798;2022-08-25T18:18:14;101652.69;;;12.84;63.77
63395;BME280;49531;-34.520;150.798;2022-08-25T18:20:44;101655.16;;;12.86;63.45
63395;BME280;49531;-34.520;150.798;2022-08-25T18:23:12;101654.88;;;12.95;63.15
63395;BME280;49531;-34.520;150.798;2022-08-25T18:25:40;101657.09;;;12.92;63.04
63395;BME280;49531;-34.520;150.798;2022-08-25T18:28:08;101663.88;;;12.88;63.20
63395;BME280;49531;-34.520;150.798;2022-08-25T18:30:35;101662.66;;;12.90;62.88
63395;BME280;49531;-34.520;150.798;2022-08-25T18:33:02;101665.16;;;12.92;62.99
63395;BME280;49531;-34.520;150.798;2022-08-25T18:35:29;101664.78;;;12.95;62.64
63395;BME280;49531;-34.520;150.798;2022-08-25T18:37:56;101664.78;;;12.95;62.79
63395;BME280;49531;-34.520;150.798;2022-08-25T18:41:02;101665.44;;;12.82;63.36
63395;BME280;49531;-34.520;150.798;2022-08-25T18:43:30;101675.06;;;12.77;63.59
63395;BME280;49531;-34.520;150.798;2022-08-25T18:45:58;101671.63;;;12.83;63.04
63395;BME280;49531;-34.520;150.798;2022-08-25T18:48:25;101668.88;;;12.76;63.37
63395;BME280;49531;-34.520;150.798;2022-08-25T18:50:53;101678.13;;;12.74;63.33
63395;BME280;49531;-34.520;150.798;2022-08-25T18:53:23;101664.72;;;12.74;62.78
63395;BME280;49531;-34.520;150.798;2022-08-25T18:55:51;101672.31;;;12.70;63.01
63395;BME280;49531;-34.520;150.798;2022-08-25T18:58:24;101673.78;;;12.73;63.04
63395;BME280;49531;-34.520;150.798;2022-08-25T19:00:52;101670.44;;;12.71;62.98
63395;BME280;49531;-34.520;150.798;2022-08-25T19:03:20;101682.56;;;12.66;63.27
63395;BME280;49531;-34.520;150.798;2022-08-25T19:05:49;101682.28;;;12.76;62.62
63395;BME280;49531;-34.520;150.798;2022-08-25T19:08:18;101681.44;;;12.76;62.53
63395;BME280;49531;-34.520;150.798;2022-08-25T19:10:48;101678.97;;;12.74;62.74
63395;BME280;49531;-34.520;150.798;2022-08-25T19:13:16;101685.63;;;12.78;62.43
63395;BME280;49531;-34.520;150.798;2022-08-25T19:15:43;101693.00;;;12.76;62.57
63395;BME280;49531;-34.520;150.798;2022-08-25T19:18:11;101701.22;;;12.75;62.32
63395;BME280;49531;-34.520;150.798;2022-08-25T19:20:40;101695.31;;;12.64;62.93
63395;BME280;49531;-34.520;150.798;2022-08-25T19:23:07;101705.00;;;12.65;62.72
63395;BME280;49531;-34.520;150.798;2022-08-25T19:25:35;101695.31;;;12.64;62.71
63395;BME280;49531;-34.520;150.798;2022-08-25T19:28:05;101698.00;;;12.64;62.55
63395;BME280;49531;-34.520;150.798;2022-08-25T19:30:33;101698.09;;;12.71;62.33
63395;BME280;49531;-34.520;150.798;2022-08-25T19:33:02;101685.69;;;12.70;62.08
63395;BME280;49531;-34.520;150.798;2022-08-25T19:35:43;101689.59;;;12.67;62.27
63395;BME280;49531;-34.520;150.798;2022-08-25T19:38:15;101694.84;;;12.61;62.28
63395;BME280;49531;-34.520;150.798;2022-08-25T19:40:43;101697.88;;;12.58;62.59
63395;BME280;49531;-34.520;150.798;2022-08-25T19:43:11;101694.75;;;12.54;62.88
63395;BME280;49531;-34.520;150.798;2022-08-25T19:45:38;101698.63;;;12.52;62.27
63395;BME280;49531;-34.520;150.798;2022-08-25T19:48:06;101702.22;;;12.59;62.17
63395;BME280;49531;-34.520;150.798;2022-08-25T19:50:34;101697.72;;;12.59;61.98
63395;BME280;49531;-34.520;150.798;2022-08-25T19:53:01;101704.72;;;12.60;62.07
63395;BME280;49531;-34.520;150.798;2022-08-25T19:55:28;101699.38;;;12.60;62.05
63395;BME280;49531;-34.520;150.798;2022-08-25T19:57:56;101714.34;;;12.55;62.35
63395;BME280;49531;-34.520;150.798;2022-08-25T20:00:27;101716.44;;;12.45;62.32
63395;BME280;49531;-34.520;150.798;2022-08-25T20:02:56;101717.63;;;12.42;62.26
63395;BME280;49531;-34.520;150.798;2022-08-25T20:05:25;101717.06;;;12.32;62.57
63395;BME280;49531;-34.520;150.798;2022-08-25T20:07:54;101716.41;;;12.30;62.30
63395;BME280;49531;-34.520;150.798;2022-08-25T20:10:24;101724.81;;;12.27;62.26
63395;BME280;49531;-34.520;150.798;2022-08-25T20:12:53;101720.94;;;12.29;62.58
63395;BME280;49531;-34.520;150.798;2022-08-25T20:15:20;101737.31;;;12.34;62.58
63395;BME280;49531;-34.520;150.798;2022-08-25T20:17:47;101736.13;;;12.37;62.21
63395;BME280;49531;-34.520;150.798;2022-08-25T20:20:18;101743.50;;;12.35;62.12
63395;BME280;49531;-34.520;150.798;2022-08-25T20:22:47;101755.22;;;12.34;62.24
63395;BME280;49531;-34.520;150.798;2022-08-25T20:25:21;101754.22;;;12.35;62.02
63395;BME280;49531;-34.520;150.798;2022-08-25T20:27:53;101759.16;;;12.23;62.13
63395;BME280;49531;-34.520;150.798;2022-08-25T20:30:26;101755.13;;;12.27;61.97
63395;BME280;49531;-34.520;150.798;2022-08-25T20:32:56;101758.91;;;12.33;61.57
63395;BME280;49531;-34.520;150.798;2022-08-25T20:35:24;101770.53;;;12.25;61.54
63395;BME280;49531;-34.520;150.798;2022-08-25T20:37:53;101765.00;;;12.27;61.78
63395;BME280;49531;-34.520;150.798;2022-08-25T20:40:21;101768.97;;;12.31;61.88
63395;BME280;49531;-34.520;150.798;2022-08-25T20:42:49;101769.34;;;12.28;61.78
63395;BME280;49531;-34.520;150.798;2022-08-25T20:45:17;101776.72;;;12.26;62.07
63395;BME280;49531;-34.520;150.798;2022-08-25T20:47:47;101782.06;;;12.26;61.95
63395;BME280;49531;-34.520;150.798;2022-08-25T20:50:15;101782.25;;;12.24;61.92
63395;BME280;49531;-34.520;150.798;2022-08-25T20:52:42;101781.44;;;12.24;61.78
63395;BME280;49531;-34.520;150.798;2022-08-25T20:55:10;101790.78;;;12.28;61.48
63395;BME280;49531;-34.520;150.798;2022-08-25T20:57:37;101785.59;;;12.26;61.93
63395;BME280;49531;-34.520;150.798;2022-08-25T21:00:05;101786.44;;;12.27;61.89
63395;BME280;49531;-34.520;150.798;2022-08-25T21:02:32;101788.50;;;12.17;62.07
63395;BME280;49531;-34.520;150.798;2022-08-25T21:05:00;101800.53;;;12.21;61.88
63395;BME280;49531;-34.520;150.798;2022-08-25T21:07:27;101796.00;;;12.21;61.61
63395;BME280;49531;-34.520;150.798;2022-08-25T21:09:54;101786.00;;;12.15;62.14
63395;BME280;49531;-34.520;150.798;2022-08-25T21:12:21;101800.53;;;12.21;61.59
63395;BME280;49531;-34.520;150.798;2022-08-25T21:14:49;101810.72;;;12.25;61.25
63395;BME280;49531;-34.520;150.798;2022-08-25T21:17:17;101808.69;;;12.27;61.24
63395;BME280;49531;-34.520;150.798;2022-08-25T21:19:44;101819.88;;;12.31;61.55
63395;BME280;49531;-34.520;150.798;2022-08-25T21:22:11;101822.56;;;12.31;61.22
63395;BME280;49531;-34.520;150.798;2022-08-25T21:24:38;101818.88;;;12.32;61.43
63395;BME280;49531;-34.520;150.798;2022-08-25T21:27:05;101825.91;;;12.33;61.55
63395;BME280;49531;-34.520;150.798;2022-08-25T21:29:33;101815.84;;;12.35;61.00
63395;BME280;49531;-34.520;150.798;2022-08-25T21:32:00;101817.16;;;12.39;61.03
63395;BME280;49531;-34.520;150.798;2022-08-25T21:34:28;101813.06;;;12.43;60.97
63395;BME280;49531;-34.520;150.798;2022-08-25T21:36:56;101817.88;;;12.48;61.02
63395;BME280;49531;-34.520;150.798;2022-08-25T21:39:24;101827.22;;;12.52;60.97
63395;BME280;49531;-34.520;150.798;2022-08-25T21:41:52;101825.03;;;12.55;61.14
63395;BME280;49531;-34.520;150.798;2022-08-25T21:44:19;101843.44;;;12.58;60.98
63395;BME280;49531;-34.520;150.798;2022-08-25T21:46:46;101839.56;;;12.61;61.23
63395;BME280;49531;-34.520;150.798;2022-08-25T21:49:15;101842.25;;;12.61;61.08
63395;BME280;49531;-34.520;150.798;2022-08-25T21:51:44;101842.25;;;12.61;61.20
63395;BME280;49531;-34.520;150.798;2022-08-25T21:54:15;101838.53;;;12.62;61.32
63395;BME280;49531;-34.520;150.798;2022-08-25T21:56:54;101836.53;;;12.64;60.93
63395;BME280;49531;-34.520;150.798;2022-08-25T21:59:26;101843.00;;;12.69;61.01
63395;BME280;49531;-34.520;150.798;2022-08-25T22:01:58;101833.13;;;12.70;61.27
63395;BME280;49531;-34.520;150.798;2022-08-25T22:04:26;101845.81;;;12.76;60.91
63395;BME280;49531;-34.520;150.798;2022-08-25T22:06:54;101849.03;;;12.86;60.79
63395;BME280;49531;-34.520;150.798;2022-08-25T22:09:21;101849.16;;;12.93;60.66
63395;BME280;49531;-34.520;150.798;2022-08-25T22:11:49;101838.16;;;13.02;60.77
63395;BME280;49531;-34.520;150.798;2022-08-25T22:14:21;101838.28;;;13.09;61.14
63395;BME280;49531;-34.520;150.798;2022-08-25T22:16:48;101854.31;;;13.17;60.75
63395;BME280;49531;-34.520;150.798;2022-08-25T22:19:16;101850.03;;;13.23;60.88
63395;BME280;49531;-34.520;150.798;2022-08-25T22:21:44;101855.13;;;13.32;60.96
63395;BME280;49531;-34.520;150.798;2022-08-25T22:24:11;101843.66;;;13.39;61.05
63395;BME280;49531;-34.520;150.798;2022-08-25T22:26:39;101846.44;;;13.45;60.66
63395;BME280;49531;-34.520;150.798;2022-08-25T22:29:06;101847.47;;;13.59;60.66
63395;BME280;49531;-34.520;150.798;2022-08-25T22:31:34;101853.72;;;13.66;60.78
63395;BME280;49531;-34.520;150.798;2022-08-25T22:34:03;101856.97;;;13.76;60.79
63395;BME280;49531;-34.520;150.798;2022-08-25T22:36:32;101857.06;;;13.83;60.64
63395;BME280;49531;-34.520;150.798;2022-08-25T22:39:00;101865.47;;;13.94;60.62
63395;BME280;49531;-34.520;150.798;2022-08-25T22:41:29;101870.69;;;14.02;60.66
63395;BME280;49531;-34.520;150.798;2022-08-25T22:43:57;101866.81;;;14.05;60.52
63395;BME280;49531;-34.520;150.798;2022-08-25T22:46:28;101877.91;;;14.17;60.55
63395;BME280;49531;-34.520;150.798;2022-08-25T22:48:56;101872.59;;;14.23;60.40
63395;BME280;49531;-34.520;150.798;2022-08-25T22:51:25;101863.41;;;14.32;60.33
63395;BME280;49531;-34.520;150.798;2022-08-25T22:53:53;101860.41;;;14.42;60.23